Hanjin Phoenix — A8CN9 — position and weather

sailwx.info

Track history (hours):
 
Tides and Currents Weather Stations Pressure Air Temp Water Temp Dewpoint Dewpoint Depression Visibility Wind Speed Wind Dir Waves Ship Positions

Hanjin Phoenix

Last reported at 2014-Dec-22 20:29 UTC. Time now 2014-Dec-22 22:06 UTC.
Position N 26°01' W 078°01'.

Length 282.1 m; beam 32.2 m; draft 13 m.

Type: Ship. MMSI: 636090671.

Date/timePositionNaut miles runAvg speedWind from/ knotsBaromVisibWave heightAir tempDewpointWater temp
2014-Dec-22 20:29N 26°01' W 078°01'2211.2
2014-Dec-22 18:33N 26°07' W 078°24'5 9.9
2014-Dec-22 18:00N 26°06' W 078°30'1020.5 150 / 131014.527.0 1.025.522.025.0
2014-Dec-22 17:30N 26°11' W 078°39'5112.1
2014-Dec-22 13:16N 25°49' W 079°31'60611.9
2014-Dec-20 10:25N 29°50' W 089°59'5 5.8
2014-Dec-20 09:29N 29°55' W 089°58'8 7.4
2014-Dec-20 08:25N 29°55' W 090°07'0 0.0
2014-Dec-20 05:20N 29°55' W 090°07'0 0.0
2014-Dec-19 23:19N 29°55' W 090°07'0 0.0
2014-Dec-19 22:21N 29°55' W 090°07'0 0.0
2014-Dec-19 20:07N 29°55' W 090°07'7 1.8
2014-Dec-19 16:12N 29°56' W 089°58'255 8.1
2014-Dec-18 08:33N 29°26' W 094°50'1211.7
2014-Dec-18 07:33N 29°36' W 094°57'5 5.3
2014-Dec-18 06:33N 29°41' W 095°00'0 0.0
2014-Dec-18 05:33N 29°41' W 095°00'0 0.0
2014-Dec-18 04:34N 29°41' W 095°00'0 0.0
2014-Dec-18 03:33N 29°41' W 095°00'0 0.0
2014-Dec-18 02:33N 29°41' W 095°00'0 0.0
2014-Dec-18 01:33N 29°41' W 095°00'0 0.0
2014-Dec-18 00:33N 29°41' W 095°00'0 0.0
2014-Dec-17 23:32N 29°41' W 095°00'0 0.0
2014-Dec-17 22:33N 29°41' W 095°00'0 0.0
2014-Dec-17 21:34N 29°41' W 095°00'0 0.0
2014-Dec-17 20:31N 29°41' W 095°00'0 0.0
2014-Dec-17 19:33N 29°41' W 095°00'0 0.0
2014-Dec-17 18:30N 29°41' W 095°00'0 0.0
2014-Dec-17 17:32N 29°41' W 095°00'0 0.0
2014-Dec-17 16:31N 29°41' W 095°00'0 0.0
2014-Dec-17 15:29N 29°41' W 095°00'0 0.0
2014-Dec-17 14:33N 29°41' W 095°00'0 0.0
2014-Dec-17 13:32N 29°41' W 095°00'0 0.0
2014-Dec-17 12:32N 29°41' W 095°00'2 2.4
2014-Dec-17 11:33N 29°39' W 094°58'1313.3
2014-Dec-17 10:33N 29°28' W 094°51'  
2014-Dec-14 15:21N 19°32' W 095°55'1012.2
2014-Dec-14 14:34N 19°22' W 095°57'1111.1
2014-Dec-14 13:34N 19°12' W 096°02'6 6.1
2014-Dec-14 12:33N 19°13' W 096°08'0 0.0
2014-Dec-14 11:33N 19°13' W 096°08'0 0.0
2014-Dec-14 10:33N 19°13' W 096°08'0 0.0
2014-Dec-14 09:33N 19°13' W 096°08'0 0.0
2014-Dec-14 08:33N 19°13' W 096°08'0 0.0
2014-Dec-14 07:33N 19°13' W 096°08'0 0.0
2014-Dec-14 06:32N 19°13' W 096°08'0 0.0
2014-Dec-14 05:33N 19°13' W 096°08'0 0.0
2014-Dec-14 04:32N 19°13' W 096°08'0 0.0
2014-Dec-14 03:32N 19°13' W 096°08'0 0.0
2014-Dec-14 02:32N 19°13' W 096°08'0 0.0
2014-Dec-14 01:31N 19°13' W 096°08'6 5.8
2014-Dec-14 00:34N 19°12' W 096°02'1211.8
2014-Dec-13 23:34N 19°24' W 096°00'2120.7
2014-Dec-13 22:32N 19°44' W 096°06'  
Track history (hours):
 
Tides and Currents Weather Stations Pressure Air Temp Water Temp Dewpoint Dewpoint Depression Visibility Wind Speed Wind Dir Waves Ship Positions

Hanjin Phoenix

Last reported at 2014-Dec-22 20:29 UTC. Time now 2014-Dec-22 22:06 UTC.
Position N 26°01' W 078°01'.

Length 282.1 m; beam 32.2 m; draft 13 m.

Type: Ship. MMSI: 636090671.

Date/timePositionNaut miles runAvg speedWind from/ knotsBaromVisibWave heightAir tempDewpointWater temp
2014-Dec-22 20:29N 26°01' W 078°01'2211.2
2014-Dec-22 18:33N 26°07' W 078°24'5 9.9
2014-Dec-22 18:00N 26°06' W 078°30'1020.5 150 / 131014.527.0 1.025.522.025.0
2014-Dec-22 17:30N 26°11' W 078°39'5112.1
2014-Dec-22 13:16N 25°49' W 079°31'60611.9
2014-Dec-20 10:25N 29°50' W 089°59'5 5.8
2014-Dec-20 09:29N 29°55' W 089°58'8 7.4
2014-Dec-20 08:25N 29°55' W 090°07'0 0.0
2014-Dec-20 05:20N 29°55' W 090°07'0 0.0
2014-Dec-19 23:19N 29°55' W 090°07'0 0.0
2014-Dec-19 22:21N 29°55' W 090°07'0 0.0
2014-Dec-19 20:07N 29°55' W 090°07'7 1.8
2014-Dec-19 16:12N 29°56' W 089°58'255 8.1
2014-Dec-18 08:33N 29°26' W 094°50'1211.7
2014-Dec-18 07:33N 29°36' W 094°57'5 5.3
2014-Dec-18 06:33N 29°41' W 095°00'0 0.0
2014-Dec-18 05:33N 29°41' W 095°00'0 0.0
2014-Dec-18 04:34N 29°41' W 095°00'0 0.0
2014-Dec-18 03:33N 29°41' W 095°00'0 0.0
2014-Dec-18 02:33N 29°41' W 095°00'0 0.0
2014-Dec-18 01:33N 29°41' W 095°00'0 0.0
2014-Dec-18 00:33N 29°41' W 095°00'0 0.0
2014-Dec-17 23:32N 29°41' W 095°00'0 0.0
2014-Dec-17 22:33N 29°41' W 095°00'0 0.0
2014-Dec-17 21:34N 29°41' W 095°00'0 0.0
2014-Dec-17 20:31N 29°41' W 095°00'0 0.0
2014-Dec-17 19:33N 29°41' W 095°00'0 0.0
2014-Dec-17 18:30N 29°41' W 095°00'0 0.0
2014-Dec-17 17:32N 29°41' W 095°00'0 0.0
2014-Dec-17 16:31N 29°41' W 095°00'0 0.0
2014-Dec-17 15:29N 29°41' W 095°00'0 0.0
2014-Dec-17 14:33N 29°41' W 095°00'0 0.0
2014-Dec-17 13:32N 29°41' W 095°00'0 0.0
2014-Dec-17 12:32N 29°41' W 095°00'2 2.4
2014-Dec-17 11:33N 29°39' W 094°58'1313.3
2014-Dec-17 10:33N 29°28' W 094°51'  
2014-Dec-14 15:21N 19°32' W 095°55'1012.2
2014-Dec-14 14:34N 19°22' W 095°57'1111.1
2014-Dec-14 13:34N 19°12' W 096°02'6 6.1
2014-Dec-14 12:33N 19°13' W 096°08'0 0.0
2014-Dec-14 11:33N 19°13' W 096°08'0 0.0
2014-Dec-14 10:33N 19°13' W 096°08'0 0.0
2014-Dec-14 09:33N 19°13' W 096°08'0 0.0
2014-Dec-14 08:33N 19°13' W 096°08'0 0.0
2014-Dec-14 07:33N 19°13' W 096°08'0 0.0
2014-Dec-14 06:32N 19°13' W 096°08'0 0.0
2014-Dec-14 05:33N 19°13' W 096°08'0 0.0
2014-Dec-14 04:32N 19°13' W 096°08'0 0.0
2014-Dec-14 03:32N 19°13' W 096°08'0 0.0
2014-Dec-14 02:32N 19°13' W 096°08'0 0.0
2014-Dec-14 01:31N 19°13' W 096°08'6 5.8
2014-Dec-14 00:34N 19°12' W 096°02'1211.8
2014-Dec-13 23:34N 19°24' W 096°00'2120.7
2014-Dec-13 22:32N 19°44' W 096°06'  

Dump ship's entire track history